Time;durP1;ratioP1;P1;durP2;ratioP2;P2;SDS_P1;SDS_P2;PMS_P1;PMS_P2;Temp;Humidity;BMP_temperature;BMP_pressure;BME280_temperature;BME280_humidity;BME280_pressure;Samples;Min_cycle;Max_cycle;Signal;HPM_P1;HPM_P2
2023/04/02 00:00:32;;;;;;;12.93;11.93;;;1.30;82.70;;;;;;4995434;28;20191;-93
2023/04/02 00:03:00;;;;;;;14.73;12.53;;;1.30;82.70;;;;;;4989247;28;20663;-94
2023/04/02 00:05:34;;;;;;;13.17;11.83;;;1.30;82.90;;;;;;4997774;28;20202;-93
2023/04/02 00:08:09;;;;;;;13.17;12.20;;;1.30;83.00;;;;;;4992952;28;20168;-94
2023/04/02 00:10:46;;;;;;;13.10;11.87;;;1.20;83.10;;;;;;4994095;28;20169;-93
2023/04/02 00:13:12;;;;;;;13.83;12.57;;;1.20;83.20;;;;;;4988796;28;20221;-94
2023/04/02 00:15:40;;;;;;;13.97;12.83;;;1.10;83.50;;;;;;4987571;28;20202;-93
2023/04/02 00:18:12;;;;;;;16.03;12.80;;;1.00;83.90;;;;;;5067016;22;20297;-93
2023/04/02 00:20:51;;;;;;;12.50;11.53;;;0.90;84.30;;;;;;5009397;28;20177;-91
2023/04/02 00:23:17;;;;;;;13.77;12.77;;;0.80;84.50;;;;;;5012202;28;20169;-93
2023/04/02 00:25:47;;;;;;;13.17;12.27;;;0.80;84.80;;;;;;5011472;28;20205;-93
2023/04/02 00:28:22;;;;;;;13.17;12.10;;;0.70;85.00;;;;;;5016298;28;20181;-93
2023/04/02 00:31:23;;;;;;;14.23;13.00;;;0.70;85.10;;;;;;5013407;28;20157;-92
2023/04/02 00:33:49;;;;;;;15.10;12.07;;;0.60;85.30;;;;;;5015852;28;20260;-93
2023/04/02 00:36:20;;;;;;;14.03;13.07;;;0.60;85.40;;;;;;5007238;28;20174;-94
2023/04/02 00:38:47;;;;;;;13.63;12.50;;;0.50;85.60;;;;;;5007557;28;20181;-94
2023/04/02 00:41:22;;;;;;;13.63;12.53;;;0.40;85.70;;;;;;5007521;28;20267;-94
2023/04/02 00:43:50;;;;;;;14.00;12.83;;;0.30;85.90;;;;;;5007365;28;20256;-93
2023/04/02 00:46:23;;;;;;;15.10;12.83;;;0.30;86.00;;;;;;5008707;28;20240;-94
2023/04/02 00:48:58;;;;;;;14.90;13.50;;;0.30;86.00;;;;;;5010959;28;20177;-94
2023/04/02 00:51:34;;;;;;;13.93;12.67;;;0.30;86.20;;;;;;5012118;28;20188;-94
2023/04/02 00:54:05;;;;;;;13.30;12.33;;;0.30;86.20;;;;;;5011574;28;20201;-94
2023/04/02 00:56:43;;;;;;;14.27;12.93;;;0.30;86.30;;;;;;5013843;28;20173;-94
2023/04/02 00:59:29;;;;;;;14.37;13.17;;;0.30;86.30;;;;;;5012431;28;20372;-94
2023/04/02 01:02:18;;;;;;;14.27;12.80;;;0.30;86.30;;;;;;5013376;28;20192;-94
2023/04/02 01:05:21;;;;;;;14.13;13.20;;;0.20;86.50;;;;;;5016917;28;20201;-94
2023/04/02 01:08:32;;;;;;;13.53;12.53;;;0.20;86.70;;;;;;5017548;28;20180;-94
2023/04/02 01:11:38;;;;;;;14.90;13.70;;;0.20;86.70;;;;;;4958360;29;20258;-94
2023/04/02 01:14:40;;;;;;;14.43;13.43;;;0.20;86.80;;;;;;5017687;28;20199;-91
2023/04/02 01:17:25;;;;;;;13.63;12.40;;;0.10;86.90;;;;;;5008152;28;20220;-93
2023/04/02 01:20:06;;;;;;;14.27;13.17;;;0.10;87.10;;;;;;5018492;28;20201;-94
2023/04/02 01:22:50;;;;;;;14.90;13.40;;;0.10;87.10;;;;;;5019316;28;20203;-94
2023/04/02 01:25:21;;;;;;;14.00;13.10;;;0.10;87.20;;;;;;5019110;28;20196;-92
2023/04/02 01:27:55;;;;;;;15.07;13.50;;;0.00;87.30;;;;;;5019364;28;20180;-91
2023/04/02 01:30:21;;;;;;;15.00;13.60;;;0.00;87.40;;;;;;5019419;28;20170;-91
2023/04/02 01:32:48;;;;;;;15.10;13.87;;;0.00;87.50;;;;;;5019248;28;20224;-94
2023/04/02 01:35:14;;;;;;;15.13;13.63;;;0.00;87.50;;;;;;5019158;28;20187;-93
2023/04/02 01:37:57;;;;;;;15.60;14.17;;;0.00;87.50;;;;;;5019173;28;20169;-91
2023/04/02 01:40:49;;;;;;;18.57;13.73;;;0.00;87.70;;;;;;5019131;28;20176;-94
2023/04/02 01:43:22;;;;;;;15.27;13.80;;;0.00;87.70;;;;;;5018491;28;20211;-94
2023/04/02 01:45:48;;;;;;;15.23;13.83;;;0.00;87.90;;;;;;5018463;28;20267;-94
2023/04/02 01:48:26;;;;;;;14.53;13.43;;;0.00;87.90;;;;;;5018581;28;20207;-94
2023/04/02 01:50:54;;;;;;;16.40;14.97;;;0.00;88.00;;;;;;5018976;28;20184;-92
2023/04/02 01:53:23;;;;;;;14.70;13.60;;;0.00;88.10;;;;;;5018711;28;20258;-92
2023/04/02 01:55:56;;;;;;;15.97;14.70;;;0.00;88.10;;;;;;5018918;28;20183;-92
2023/04/02 01:58:25;;;;;;;17.43;14.67;;;0.00;88.10;;;;;;5018927;28;20180;-92
2023/04/02 02:01:07;;;;;;;16.10;14.70;;;0.00;88.10;;;;;;5018945;28;20162;-91
2023/04/02 02:03:33;;;;;;;16.77;15.23;;;0.00;88.20;;;;;;5019004;28;20192;-92
2023/04/02 02:06:01;;;;;;;19.03;15.27;;;-0.10;88.30;;;;;;5018844;28;20161;-93
2023/04/02 02:08:43;;;;;;;16.40;15.23;;;-0.10;88.30;;;;;;5018841;28;20200;-93
2023/04/02 02:11:17;;;;;;;17.77;16.00;;;-0.10;88.40;;;;;;5018783;28;20165;-92
2023/04/02 02:13:51;;;;;;;18.43;16.63;;;-0.20;88.50;;;;;;5018733;28;20203;-93
2023/04/02 02:16:18;;;;;;;17.70;15.80;;;-0.20;88.70;;;;;;5018757;28;20159;-93
2023/04/02 02:18:50;;;;;;;17.73;16.43;;;-0.20;88.70;;;;;;5018410;28;20210;-94
2023/04/02 02:21:42;;;;;;;17.20;15.80;;;-0.20;88.80;;;;;;5018572;28;20250;-92
2023/04/02 02:24:31;;;;;;;17.23;15.93;;;-0.30;88.80;;;;;;5018576;28;20186;-93
2023/04/02 02:27:22;;;;;;;17.57;16.23;;;-0.30;88.90;;;;;;5022472;28;20259;-94
2023/04/02 02:30:10;;;;;;;17.87;16.37;;;-0.30;89.00;;;;;;4996659;28;20181;-92
2023/04/02 02:32:45;;;;;;;17.70;16.20;;;-0.40;89.10;;;;;;5022661;28;20263;-93
2023/04/02 02:35:24;;;;;;;18.30;16.60;;;-0.40;89.30;;;;;;5022477;28;20181;-94
2023/04/02 02:38:18;;;;;;;18.77;17.20;;;-0.30;89.40;;;;;;5020703;28;20164;-94
2023/04/02 02:40:49;;;;;;;17.30;15.90;;;-0.30;89.40;;;;;;5011963;28;20190;-93
2023/04/02 02:43:19;;;;;;;18.83;16.90;;;-0.30;89.50;;;;;;5020005;28;20234;-94
2023/04/02 02:45:52;;;;;;;18.10;16.73;;;-0.20;89.60;;;;;;5018742;28;20207;-94
2023/04/02 02:48:32;;;;;;;17.63;16.30;;;-0.20;89.60;;;;;;5020035;28;20179;-94
2023/04/02 02:51:16;;;;;;;17.73;16.03;;;-0.20;89.60;;;;;;5019459;28;20183;-94
2023/04/02 02:53:57;;;;;;;18.57;16.83;;;-0.10;89.70;;;;;;5019746;28;20207;-94
2023/04/02 02:56:33;;;;;;;18.13;16.53;;;-0.10;89.60;;;;;;5021115;28;20167;-94
2023/04/02 02:59:28;;;;;;;18.60;17.20;;;-0.10;89.60;;;;;;5020062;28;20183;-94
2023/04/02 03:02:14;;;;;;;17.63;16.30;;;0.00;89.60;;;;;;4987497;28;20188;-94
2023/04/02 03:05:04;;;;;;;18.77;17.07;;;0.00;89.70;;;;;;5018191;28;20221;-94
2023/04/02 03:07:42;;;;;;;18.07;16.50;;;0.00;89.70;;;;;;5019549;28;20164;-94
2023/04/02 03:10:47;;;;;;;17.40;15.93;;;0.00;89.60;;;;;;5020378;28;20158;-95
2023/04/02 03:13:43;;;;;;;;;;;;;;;;;;;;;
2023/04/02 03:16:41;;;;;;;19.10;17.60;;;0.00;89.50;;;;;;5259571;22;20260;-93
2023/04/02 03:19:58;;;;;;;;;;;;;;;;;;;;;
2023/04/02 03:23:15;;;;;;;;;;;;;;;;;;;;;
2023/04/02 03:26:20;;;;;;;;;;;;;;;;;;;;;
2023/04/02 03:29:14;;;;;;;19.63;17.77;;;0.00;89.60;;;;;;4942143;28;20188;-92
2023/04/02 03:32:11;;;;;;;17.83;16.33;;;0.00;89.60;;;;;;4926709;29;20223;-94
2023/04/02 06:28:46;;;;;;;17.83;15.90;;;2.70;85.80;;;;;;3817901;22;20312;-94
2023/04/02 06:31:37;;;;;;;14.57;13.33;;;2.70;86.00;;;;;;5000427;28;20174;-94
2023/04/02 06:34:06;;;;;;;15.80;14.30;;;2.70;85.80;;;;;;4997212;28;20206;-94
2023/04/02 06:36:32;;;;;;;14.27;13.23;;;2.80;85.10;;;;;;4996396;28;20734;-94
2023/04/02 06:39:05;;;;;;;14.70;13.50;;;2.90;85.40;;;;;;4995745;28;20209;-93
2023/04/02 06:41:31;;;;;;;15.23;13.90;;;3.00;85.00;;;;;;4995610;28;20166;-93
2023/04/02 06:44:02;;;;;;;14.37;13.20;;;3.20;84.90;;;;;;4996742;28;20212;-94
2023/04/02 06:46:36;;;;;;;13.50;12.30;;;3.30;84.30;;;;;;4996920;28;20182;-94
2023/04/02 06:49:14;;;;;;;14.10;13.07;;;3.40;83.20;;;;;;4996303;28;20174;-94
2023/04/02 06:51:42;;;;;;;14.20;13.10;;;3.40;83.20;;;;;;4996120;28;20167;-94
2023/04/02 06:54:15;;;;;;;14.93;13.40;;;3.40;83.20;;;;;;5000177;28;20193;-94
2023/04/02 06:56:47;;;;;;;13.80;12.77;;;3.30;82.60;;;;;;4995880;28;20630;-94
2023/04/02 06:59:14;;;;;;;14.90;13.50;;;3.40;83.00;;;;;;4994632;28;20200;-92
2023/04/02 07:01:51;;;;;;;15.97;14.60;;;3.50;82.30;;;;;;4999626;28;20175;-93
2023/04/02 07:04:18;;;;;;;13.53;12.30;;;3.60;81.80;;;;;;4993213;28;20204;-92
2023/04/02 07:06:47;;;;;;;14.70;13.70;;;3.80;81.60;;;;;;4999252;28;20230;-94
2023/04/02 07:09:13;;;;;;;14.57;13.13;;;4.00;81.50;;;;;;5006605;28;20179;-94
2023/04/02 07:11:38;;;;;;;15.90;14.67;;;4.00;80.10;;;;;;4998374;28;20202;-94
2023/04/02 07:14:04;;;;;;;22.27;20.80;;;4.10;80.20;;;;;;5000902;28;20199;-93
2023/04/02 07:16:32;;;;;;;21.10;19.50;;;4.20;79.50;;;;;;4999315;28;20215;-92
2023/04/02 07:18:58;;;;;;;21.13;19.63;;;4.30;79.40;;;;;;4997831;28;20217;-92
2023/04/02 07:21:25;;;;;;;20.23;18.60;;;4.40;79.50;;;;;;4997175;28;20178;-93
2023/04/02 07:23:52;;;;;;;17.03;15.93;;;4.50;78.90;;;;;;4999242;28;20262;-93
2023/04/02 07:26:21;;;;;;;18.87;17.37;;;4.30;77.60;;;;;;5000350;28;20181;-93
2023/04/02 07:28:50;;;;;;;18.53;17.23;;;4.30;78.70;;;;;;4999784;28;20192;-93
2023/04/02 07:31:24;;;;;;;18.70;17.30;;;4.30;77.80;;;;;;5007332;28;20267;-94
2023/04/02 07:33:50;;;;;;;16.90;15.67;;;4.50;78.30;;;;;;5004456;28;20208;-93
2023/04/02 07:36:19;;;;;;;17.07;15.90;;;4.70;78.80;;;;;;5003157;28;20192;-93
2023/04/02 07:38:45;;;;;;;17.23;15.93;;;4.70;77.50;;;;;;5002861;28;20183;-93
2023/04/02 07:41:12;;;;;;;19.37;16.43;;;4.80;77.20;;;;;;5004970;28;20173;-94
2023/04/02 07:43:41;;;;;;;17.37;16.20;;;4.80;76.70;;;;;;5005200;28;20706;-93
2023/04/02 07:46:08;;;;;;;17.60;16.27;;;4.80;76.10;;;;;;5001894;28;20240;-94
2023/04/02 07:48:34;;;;;;;16.87;15.87;;;4.80;76.30;;;;;;5003483;28;20191;-93
2023/04/02 07:51:02;;;;;;;17.07;16.07;;;5.00;76.50;;;;;;5001904;28;20185;-94
2023/04/02 07:53:31;;;;;;;18.37;16.97;;;4.90;75.30;;;;;;5004010;28;20193;-94
2023/04/02 07:55:58;;;;;;;18.67;17.57;;;5.10;75.50;;;;;;5004852;28;20205;-94
2023/04/02 07:58:23;;;;;;;19.00;17.90;;;5.10;73.70;;;;;;5006422;28;20174;-94
2023/04/02 08:00:49;;;;;;;18.90;17.50;;;5.20;74.30;;;;;;5006176;28;20177;-94
2023/04/02 08:03:16;;;;;;;17.53;16.33;;;5.30;74.60;;;;;;5007026;28;20202;-94
2023/04/02 08:05:42;;;;;;;17.17;16.07;;;5.40;74.50;;;;;;5003036;28;20200;-94
2023/04/02 08:08:07;;;;;;;19.20;17.50;;;5.60;76.10;;;;;;5005150;28;20192;-94
2023/04/02 08:10:33;;;;;;;17.50;16.30;;;5.60;75.30;;;;;;5002619;28;20676;-94
2023/04/02 08:12:59;;;;;;;18.63;17.23;;;5.50;73.70;;;;;;5004599;28;20205;-94
2023/04/02 08:15:25;;;;;;;18.97;17.63;;;5.50;73.80;;;;;;5002085;28;20223;-93
2023/04/02 08:17:50;;;;;;;16.37;15.23;;;5.40;73.40;;;;;;5000265;28;20190;-93
2023/04/02 08:20:18;;;;;;;16.73;15.67;;;5.60;75.30;;;;;;5002064;28;20188;-93
2023/04/02 08:22:48;;;;;;;17.37;16.27;;;5.20;73.70;;;;;;5000661;28;20231;-93
2023/04/02 08:25:15;;;;;;;16.67;15.63;;;4.90;75.90;;;;;;5000329;28;20205;-93
2023/04/02 08:27:41;;;;;;;17.10;15.90;;;5.10;74.80;;;;;;5005562;28;20228;-93
2023/04/02 08:30:07;;;;;;;17.13;16.13;;;5.30;75.00;;;;;;5005621;28;20178;-93
2023/04/02 08:32:33;;;;;;;16.83;15.37;;;5.40;75.30;;;;;;5006688;28;20198;-92
2023/04/02 08:34:59;;;;;;;17.30;16.20;;;5.50;74.30;;;;;;5006202;28;20268;-94
2023/04/02 08:37:25;;;;;;;18.40;17.30;;;5.60;73.70;;;;;;5005548;28;20178;-94
2023/04/02 08:39:54;;;;;;;17.17;16.17;;;5.50;72.80;;;;;;5005931;28;20216;-94
2023/04/02 08:42:33;;;;;;;17.83;16.70;;;5.50;74.80;;;;;;5004484;28;20186;-94
2023/04/02 08:45:20;;;;;;;16.00;15.10;;;5.50;73.30;;;;;;5004795;28;20197;-94
2023/04/02 08:47:47;;;;;;;17.53;16.50;;;5.70;73.80;;;;;;5003102;28;20571;-93
2023/04/02 08:50:33;;;;;;;18.10;17.00;;;5.80;72.90;;;;;;4997510;28;20189;-93
2023/04/02 08:53:03;;;;;;;17.00;16.00;;;5.80;74.00;;;;;;4996389;28;20548;-93
2023/04/02 08:55:41;;;;;;;12.43;11.73;;;5.80;72.80;;;;;;5000154;28;20198;-94
2023/04/02 08:58:41;;;;;;;15.93;14.83;;;6.10;73.50;;;;;;4997877;28;20173;-93
2023/04/02 09:01:22;;;;;;;15.83;14.83;;;6.10;68.80;;;;;;4996263;28;20572;-93
2023/04/02 09:03:54;;;;;;;14.40;13.60;;;6.10;70.30;;;;;;5006690;28;20185;-93
2023/04/02 09:06:21;;;;;;;19.73;18.53;;;6.00;68.90;;;;;;5000163;28;20157;-92
2023/04/02 09:08:48;;;;;;;20.33;19.03;;;6.10;69.60;;;;;;5001659;28;20644;-92
2023/04/02 09:11:20;;;;;;;19.77;18.37;;;6.00;67.80;;;;;;4998083;28;20189;-93
2023/04/02 09:13:51;;;;;;;21.00;19.50;;;6.20;68.40;;;;;;4996418;28;20230;-93
2023/04/02 09:16:21;;;;;;;21.83;20.37;;;6.20;66.80;;;;;;4996354;28;20181;-92
2023/04/02 09:18:51;;;;;;;20.80;19.60;;;6.30;67.30;;;;;;4998405;28;20174;-92
2023/04/02 09:21:20;;;;;;;21.83;20.50;;;6.10;64.60;;;;;;4995108;28;20185;-93
2023/04/02 09:23:46;;;;;;;20.43;18.83;;;6.20;66.40;;;;;;4995279;28;20182;-90
2023/04/02 09:26:22;;;;;;;21.53;20.23;;;6.20;66.60;;;;;;4993327;28;20182;-89
2023/04/02 09:28:54;;;;;;;22.00;20.60;;;6.30;67.00;;;;;;4994546;28;20192;-91
2023/04/02 09:31:34;;;;;;;20.87;19.57;;;6.30;67.50;;;;;;4996047;28;20185;-94
2023/04/02 09:34:00;;;;;;;21.93;20.07;;;6.50;69.70;;;;;;4994619;28;20205;-93
2023/04/02 09:36:37;;;;;;;20.30;19.10;;;6.40;65.90;;;;;;4994358;28;20172;-93
2023/04/02 09:39:18;;;;;;;20.70;19.40;;;6.30;64.70;;;;;;4994310;28;20177;-93
2023/04/02 09:41:45;;;;;;;20.63;19.37;;;6.30;64.90;;;;;;4993929;28;20170;-93
2023/04/02 09:44:31;;;;;;;19.97;18.67;;;6.70;67.00;;;;;;4994004;28;20201;-93
2023/04/02 09:47:03;;;;;;;19.77;17.93;;;6.70;64.20;;;;;;4993739;28;20190;-92
2023/04/02 09:49:38;;;;;;;19.00;17.80;;;6.80;64.30;;;;;;4994127;28;20181;-92
2023/04/02 09:52:33;;;;;;;19.23;18.13;;;6.80;62.80;;;;;;4994589;28;20605;-93
2023/04/02 09:55:14;;;;;;;18.43;17.33;;;6.80;60.50;;;;;;4995186;28;20611;-93
2023/04/02 09:57:44;;;;;;;18.47;17.37;;;6.90;64.70;;;;;;4995256;28;20260;-93
2023/04/02 10:00:23;;;;;;;19.13;17.73;;;7.00;62.90;;;;;;4994931;28;20178;-94
2023/04/02 10:03:25;;;;;;;18.60;17.40;;;7.10;63.60;;;;;;4994476;28;20180;-93
2023/04/02 10:06:11;;;;;;;18.50;17.20;;;7.10;62.70;;;;;;4985889;28;20580;-93
2023/04/02 10:08:40;;;;;;;18.77;17.57;;;7.20;62.50;;;;;;4996264;28;20177;-93
2023/04/02 10:11:32;;;;;;;18.40;17.30;;;7.30;63.70;;;;;;4995519;28;20178;-94
2023/04/02 12:51:38;;;;;;;19.57;18.37;;;8.70;51.10;;;;;;5011121;22;20279;-93
2023/04/02 12:54:14;;;;;;;18.40;17.30;;;8.50;50.80;;;;;;5002458;28;20281;-94
2023/04/02 12:56:40;;;;;;;16.60;15.60;;;8.60;54.60;;;;;;5006005;28;20201;-92
2023/04/02 12:59:23;;;;;;;16.53;15.53;;;8.60;54.00;;;;;;5002392;28;20632;-93
2023/04/02 13:02:14;;;;;;;17.37;16.07;;;8.60;54.40;;;;;;5001065;28;20162;-94
2023/04/02 13:05:07;;;;;;;16.73;15.60;;;8.90;55.80;;;;;;5002584;28;20349;-94
2023/04/02 13:07:36;;;;;;;16.53;15.53;;;8.80;50.70;;;;;;4999869;28;20194;-93
2023/04/02 13:10:24;;;;;;;17.03;16.03;;;8.70;52.60;;;;;;4999538;28;20648;-93
2023/04/02 13:12:56;;;;;;;17.80;16.70;;;8.60;47.10;;;;;;4996544;28;20683;-93
2023/04/02 13:15:26;;;;;;;19.37;18.17;;;8.70;52.70;;;;;;4995428;28;20296;-93
2023/04/02 13:18:16;;;;;;;19.60;18.43;;;8.70;53.00;;;;;;4997689;28;20237;-92
2023/04/02 13:20:53;;;;;;;20.10;18.90;;;8.60;51.90;;;;;;4995945;28;20192;-93
2023/04/02 13:23:27;;;;;;;19.53;18.43;;;8.50;52.30;;;;;;4998050;28;20197;-93
2023/04/02 13:25:54;;;;;;;19.63;18.47;;;8.50;52.90;;;;;;4998077;28;20194;-92
2023/04/02 13:28:20;;;;;;;19.67;18.37;;;8.40;53.40;;;;;;4997326;28;20268;-93
2023/04/02 13:30:47;;;;;;;20.20;18.73;;;8.70;54.70;;;;;;4996844;28;20516;-93
2023/04/02 13:33:13;;;;;;;20.13;18.93;;;8.80;53.00;;;;;;4996483;28;20210;-93
2023/04/02 13:35:39;;;;;;;19.80;18.60;;;8.70;51.30;;;;;;4997016;28;20216;-93
2023/04/02 13:38:05;;;;;;;19.50;18.23;;;8.70;54.50;;;;;;4997314;28;20178;-92
2023/04/02 13:40:32;;;;;;;18.60;17.33;;;8.60;50.90;;;;;;4993428;28;20264;-91
2023/04/02 13:42:58;;;;;;;19.17;17.80;;;8.60;55.20;;;;;;4994274;28;20609;-90
2023/04/02 13:45:25;;;;;;;15.50;14.60;;;8.50;54.90;;;;;;4992982;28;20237;-90
2023/04/02 13:47:50;;;;;;;16.03;14.93;;;8.50;52.70;;;;;;4992960;28;20178;-90
2023/04/02 13:50:18;;;;;;;15.83;14.93;;;8.50;54.80;;;;;;4993468;28;20193;-90
2023/04/02 13:52:44;;;;;;;19.50;18.40;;;8.50;53.00;;;;;;4992918;28;20292;-90
2023/04/02 13:55:10;;;;;;;19.67;18.37;;;8.40;52.60;;;;;;4993398;28;20287;-89
2023/04/02 13:57:36;;;;;;;20.10;18.90;;;8.40;55.40;;;;;;4995144;28;20520;-90
2023/04/02 14:00:03;;;;;;;19.40;18.30;;;8.40;52.10;;;;;;4994468;28;20205;-90
2023/04/02 14:02:30;;;;;;;20.10;18.90;;;8.30;54.00;;;;;;4992873;28;20182;-91
2023/04/02 14:05:29;;;;;;;19.50;18.40;;;8.40;54.80;;;;;;4993105;28;20283;-91
2023/04/02 14:08:12;;;;;;;18.80;17.70;;;8.30;54.50;;;;;;4970728;28;20233;-90
2023/04/02 14:10:45;;;;;;;19.33;18.13;;;8.50;55.00;;;;;;4994072;28;20166;-91
2023/04/02 14:13:48;;;;;;;18.50;17.40;;;8.40;55.40;;;;;;4992746;28;20202;-90
2023/04/02 14:16:28;;;;;;;18.70;17.60;;;8.40;53.70;;;;;;4992927;28;20727;-90
2023/04/02 14:19:09;;;;;;;18.53;17.43;;;8.40;52.40;;;;;;4992883;28;20168;-90
2023/04/02 14:21:56;;;;;;;18.37;17.20;;;8.30;53.10;;;;;;4993815;28;20162;-90
2023/04/02 14:25:07;;;;;;;18.90;17.67;;;8.30;54.20;;;;;;4993922;28;20186;-92
2023/04/02 14:28:10;;;;;;;15.83;14.83;;;8.50;55.90;;;;;;4993327;28;20224;-90
2023/04/02 14:30:58;;;;;;;15.53;14.63;;;8.60;54.70;;;;;;4993033;28;20178;-91
2023/04/02 14:33:40;;;;;;;14.07;13.27;;;8.30;52.10;;;;;;4992631;28;20233;-91
2023/04/02 14:36:33;;;;;;;14.00;13.20;;;8.30;53.50;;;;;;4992783;28;20171;-91
2023/04/02 14:39:14;;;;;;;14.33;13.53;;;8.20;54.00;;;;;;4993729;28;20162;-91
2023/04/02 14:41:53;;;;;;;14.97;14.07;;;8.00;52.70;;;;;;4994030;28;20695;-91
2023/04/02 14:44:25;;;;;;;15.50;14.60;;;8.10;54.30;;;;;;4994067;28;20202;-92
2023/04/02 14:46:59;;;;;;;15.30;14.40;;;8.20;52.90;;;;;;4994295;28;20182;-91
2023/04/02 14:49:38;;;;;;;15.90;15.00;;;8.30;54.10;;;;;;4993455;28;20170;-91
2023/04/02 14:52:09;;;;;;;15.67;14.73;;;8.20;52.70;;;;;;4995026;28;20178;-91
2023/04/02 14:54:44;;;;;;;15.90;14.97;;;8.10;53.60;;;;;;4994203;28;20209;-92
2023/04/02 14:57:22;;;;;;;16.23;14.57;;;8.10;54.30;;;;;;4992907;28;20624;-91
2023/04/02 15:00:23;;;;;;;15.07;14.10;;;8.20;53.50;;;;;;4992336;28;20163;-91
2023/04/02 15:03:25;;;;;;;15.27;14.37;;;8.40;55.90;;;;;;4996228;28;20166;-92
2023/04/02 15:06:04;;;;;;;15.63;14.60;;;8.20;58.10;;;;;;4932549;28;20296;-91
2023/04/02 15:08:37;;;;;;;16.50;15.50;;;8.10;55.40;;;;;;4992189;28;20740;-90
2023/04/02 15:11:05;;;;;;;16.60;15.40;;;7.90;52.40;;;;;;4992355;28;20213;-90
2023/04/02 15:13:44;;;;;;;16.30;15.30;;;8.00;53.80;;;;;;4992075;28;20202;-90
2023/04/02 15:16:15;;;;;;;16.60;15.53;;;8.00;52.60;;;;;;4993142;28;20173;-91
2023/04/02 15:18:40;;;;;;;16.03;15.03;;;8.00;54.40;;;;;;4992387;28;20209;-91
2023/04/02 15:21:28;;;;;;;16.30;15.23;;;8.00;56.50;;;;;;4992231;28;20170;-91
2023/04/02 15:24:12;;;;;;;16.50;15.40;;;7.90;54.70;;;;;;4992297;28;20163;-90
2023/04/02 15:27:22;;;;;;;15.60;14.70;;;7.90;55.70;;;;;;4992191;28;20182;-91
2023/04/02 15:29:58;;;;;;;15.90;15.00;;;7.80;53.30;;;;;;4994851;28;20205;-92
2023/04/02 15:32:32;;;;;;;15.93;15.03;;;7.60;52.90;;;;;;4996037;28;20229;-92
2023/04/02 15:35:07;;;;;;;16.00;15.00;;;7.60;51.60;;;;;;4998780;28;20754;-92
2023/04/02 15:40:40;;;;;;;15.93;15.03;;;7.60;53.80;;;;;;3866775;22;20616;-91
2023/04/02 15:43:31;;;;;;;15.57;14.67;;;7.50;51.00;;;;;;4978838;28;20194;-92
2023/04/02 15:46:29;;;;;;;15.90;15.00;;;7.40;50.60;;;;;;4996544;28;20233;-91
2023/04/02 15:49:04;;;;;;;16.40;15.40;;;7.30;50.40;;;;;;5000775;28;20256;-90
2023/04/02 15:51:49;;;;;;;15.73;14.83;;;7.30;52.30;;;;;;4997496;28;20162;-92
2023/04/02 15:54:25;;;;;;;15.67;14.77;;;7.30;53.00;;;;;;4996584;28;20292;-92
2023/04/02 15:57:15;;;;;;;15.80;14.80;;;7.30;52.90;;;;;;4999142;28;20193;-91
2023/04/02 16:00:17;;;;;;;15.60;14.70;;;7.30;51.90;;;;;;4996648;28;20163;-92
2023/04/02 16:03:11;;;;;;;15.80;14.60;;;7.30;53.20;;;;;;4998419;28;20257;-91
2023/04/02 16:06:09;;;;;;;15.87;14.87;;;7.30;54.30;;;;;;4998046;28;20205;-89
2023/04/02 16:09:03;;;;;;;15.20;14.30;;;7.20;54.90;;;;;;4997392;28;20162;-90
2023/04/02 16:11:29;;;;;;;15.57;14.63;;;7.00;51.70;;;;;;5002291;28;20170;-94
2023/04/02 16:14:27;;;;;;;14.83;14.03;;;6.90;50.70;;;;;;4998910;28;20225;-92
2023/04/02 16:17:06;;;;;;;14.80;14.00;;;6.90;50.80;;;;;;5001648;28;20166;-91
2023/04/02 16:19:42;;;;;;;15.20;14.40;;;6.80;52.70;;;;;;5007735;28;20166;-92
2023/04/02 16:22:25;;;;;;;15.30;14.40;;;6.70;52.10;;;;;;5009198;28;20162;-93
2023/04/02 16:25:18;;;;;;;16.50;15.50;;;6.70;54.00;;;;;;5003442;28;20567;-91
2023/04/02 16:28:24;;;;;;;15.37;14.37;;;6.70;56.00;;;;;;5001030;28;20537;-92
2023/04/02 16:30:56;;;;;;;15.03;14.17;;;6.60;54.50;;;;;;5008612;28;20162;-91
2023/04/02 16:33:32;;;;;;;16.03;15.03;;;6.60;54.20;;;;;;5015650;28;20197;-92
2023/04/02 16:36:27;;;;;;;14.67;13.87;;;6.50;52.90;;;;;;5017348;28;20268;-92
2023/04/02 16:39:16;;;;;;;14.63;13.83;;;6.30;53.20;;;;;;5016039;28;20262;-92
2023/04/02 16:42:11;;;;;;;14.87;14.07;;;6.30;53.90;;;;;;5015363;28;20197;-92
2023/04/02 16:44:45;;;;;;;15.07;14.17;;;6.30;53.60;;;;;;5017101;28;20205;-92
2023/04/02 16:47:26;;;;;;;15.60;14.47;;;6.20;53.60;;;;;;5010553;28;20186;-92
2023/04/02 16:49:59;;;;;;;15.07;14.17;;;6.10;55.80;;;;;;4998051;28;20166;-89
2023/04/02 16:52:39;;;;;;;14.30;13.50;;;6.10;56.80;;;;;;4998452;28;20193;-94
2023/04/02 16:55:38;;;;;;;15.83;14.70;;;6.00;57.80;;;;;;4996844;28;20193;-94
2023/04/02 16:58:12;;;;;;;14.63;13.70;;;5.90;58.00;;;;;;4995940;28;20162;-93
2023/04/02 17:00:45;;;;;;;14.20;13.20;;;5.80;58.10;;;;;;4996328;28;20176;-92
2023/04/02 17:03:11;;;;;;;13.57;12.77;;;5.80;59.00;;;;;;4994478;28;20173;-91
2023/04/02 17:06:13;;;;;;;13.50;12.67;;;5.70;60.30;;;;;;4993863;28;20256;-92
2023/04/02 17:08:43;;;;;;;14.20;13.30;;;5.70;58.80;;;;;;4994881;28;20192;-92
2023/04/02 17:11:21;;;;;;;14.57;13.47;;;5.60;57.50;;;;;;4994072;28;20280;-92
2023/04/02 17:14:05;;;;;;;14.10;13.20;;;5.50;58.60;;;;;;4993986;28;20197;-91
2023/04/02 17:16:39;;;;;;;13.50;12.80;;;5.50;58.50;;;;;;4994614;28;20165;-93
2023/04/02 17:19:11;;;;;;;14.10;13.30;;;5.40;58.70;;;;;;4994410;28;20185;-91
2023/04/02 17:21:38;;;;;;;12.33;11.63;;;5.30;59.90;;;;;;4993890;28;20192;-92
2023/04/02 17:24:16;;;;;;;15.30;14.07;;;5.20;59.70;;;;;;4994936;28;20231;-92
2023/04/02 17:26:46;;;;;;;13.37;12.47;;;5.20;60.20;;;;;;4993996;28;20250;-91
2023/04/02 17:29:20;;;;;;;13.83;12.93;;;5.10;61.40;;;;;;4993894;28;20173;-93
2023/04/02 17:31:47;;;;;;;14.07;13.17;;;4.90;62.80;;;;;;4994544;28;20177;-92
2023/04/02 17:34:15;;;;;;;13.37;12.30;;;4.90;61.80;;;;;;4994119;28;20232;-94
2023/04/02 17:36:50;;;;;;;12.50;11.80;;;4.80;62.10;;;;;;4994257;28;20177;-92
2023/04/02 17:39:34;;;;;;;12.63;11.87;;;4.90;62.00;;;;;;4993670;28;20559;-92
2023/04/02 17:42:19;;;;;;;13.50;12.80;;;4.80;60.20;;;;;;4993786;28;20177;-93
2023/04/02 17:44:58;;;;;;;13.93;13.13;;;4.80;59.40;;;;;;4994418;28;20240;-92
2023/04/02 17:47:27;;;;;;;13.67;12.87;;;4.70;60.00;;;;;;4994313;28;20596;-92
2023/04/02 17:50:33;;;;;;;14.67;13.50;;;4.60;60.80;;;;;;4993536;28;20245;-92
2023/04/02 17:53:05;;;;;;;13.30;12.60;;;4.50;63.30;;;;;;4995583;28;20588;-93
2023/04/02 17:56:03;;;;;;;13.17;12.17;;;4.40;64.40;;;;;;4996891;28;20743;-92
2023/04/02 17:58:55;;;;;;;15.67;14.30;;;4.30;65.70;;;;;;4995904;28;20200;-93
2023/04/02 18:01:48;;;;;;;13.90;12.93;;;4.10;66.90;;;;;;4996966;28;20401;-93
2023/04/02 18:04:26;;;;;;;13.60;12.70;;;4.00;67.80;;;;;;4993646;28;20212;-93
2023/04/02 18:07:22;;;;;;;14.00;12.90;;;3.90;69.00;;;;;;4994257;28;20203;-94
2023/04/02 18:10:26;;;;;;;14.00;12.90;;;3.70;69.80;;;;;;4993815;28;20205;-91
2023/04/02 18:12:56;;;;;;;14.60;13.60;;;3.60;70.70;;;;;;4996072;28;20194;-91
2023/04/02 18:15:30;;;;;;;13.80;12.80;;;3.50;71.20;;;;;;4994214;28;20191;-92
2023/04/02 18:18:09;;;;;;;14.07;13.07;;;3.50;70.70;;;;;;4992786;28;20169;-91
2023/04/02 18:21:15;;;;;;;13.63;12.60;;;3.60;70.40;;;;;;4994040;28;20238;-92
2023/04/02 18:23:57;;;;;;;14.27;13.27;;;3.50;71.00;;;;;;4993896;28;20171;-92
2023/04/02 18:26:35;;;;;;;14.03;13.13;;;3.50;71.60;;;;;;4992600;28;20163;-91
2023/04/02 18:29:25;;;;;;;17.73;13.53;;;3.50;71.10;;;;;;4992703;28;20171;-92
2023/04/02 18:32:18;;;;;;;15.00;13.50;;;3.50;71.40;;;;;;4993926;28;20302;-92
2023/04/02 18:35:08;;;;;;;14.10;13.07;;;3.50;70.50;;;;;;4992552;28;20225;-91
2023/04/02 18:38:04;;;;;;;12.83;12.13;;;3.50;70.30;;;;;;4994056;28;20166;-91
2023/04/02 18:40:42;;;;;;;13.97;12.97;;;3.50;70.60;;;;;;4992462;28;20187;-91
2023/04/02 18:43:37;;;;;;;13.93;13.03;;;3.50;69.60;;;;;;4992579;28;20696;-91
2023/04/02 18:46:30;;;;;;;13.63;12.83;;;3.50;70.00;;;;;;4993991;28;20158;-91
2023/04/02 18:49:27;;;;;;;14.33;13.30;;;3.40;70.10;;;;;;4992423;28;20174;-91
2023/04/02 18:52:01;;;;;;;13.87;12.87;;;3.30;70.60;;;;;;4992987;28;20163;-91
2023/04/02 18:54:37;;;;;;;14.10;13.20;;;3.20;71.70;;;;;;4992443;28;20214;-91
2023/04/02 18:57:34;;;;;;;13.80;12.87;;;3.10;72.50;;;;;;4992404;28;20641;-91
2023/04/02 19:00:11;;;;;;;13.10;12.10;;;2.90;73.50;;;;;;4992553;28;20167;-92
2023/04/02 19:02:47;;;;;;;13.47;12.40;;;2.80;74.30;;;;;;4993796;28;20186;-91
2023/04/02 19:05:35;;;;;;;16.60;13.10;;;2.80;74.20;;;;;;4993446;28;20554;-91
2023/04/02 19:08:32;;;;;;;12.03;11.20;;;2.80;74.30;;;;;;4993867;28;20672;-91
2023/04/02 19:11:02;;;;;;;11.70;10.90;;;2.80;74.60;;;;;;4990405;28;20209;-91